Nichiryu Maru — JG5632 — position and weather

sailwx.info

Track history (hours):
 
Tides and Currents Weather Stations Pressure Air Temp Water Temp Dewpoint Dewpoint Depression Visibility Wind Speed Wind Dir Waves Ship Positions

Nichiryu Maru

Last reported at 2016-Feb-08 05:29 UTC. Time now 2016-Feb-08 06:10 UTC.
Position N 35°19' E 139°39'.

Length 158 m; draft 6.5 m.

Type: Cargo ship. MMSI: 43100939.

Date/timePositionNaut miles runAvg speedWind from/ knotsBaromVisibWave heightAir tempDewpointWater temp
2016-Feb-08 05:29N 35°19' E 139°39'0 0.0
2016-Feb-08 04:32N 35°19' E 139°39'0 0.0
2016-Feb-08 03:29N 35°19' E 139°39'0 0.0
2016-Feb-08 02:32N 35°19' E 139°39'0 0.0
2016-Feb-08 01:23N 35°19' E 139°39'0 0.0
2016-Feb-08 00:32N 35°19' E 139°39'0 0.0
2016-Feb-07 23:29N 35°19' E 139°39'5 5.5
2016-Feb-07 22:33N 35°17' E 139°45'1414.1
2016-Feb-07 21:33N 35°04' E 139°42'6615.9
2016-Feb-07 17:23N 34°29' E 138°32'  
2016-Feb-05 08:15N 34°33' E 134°47'1319.0
2016-Feb-05 07:33N 34°37' E 135°02'1010.4
2016-Feb-05 06:34N 34°41' E 135°14'0 0.2
2016-Feb-05 05:29N 34°41' E 135°13'0 0.0
2016-Feb-05 04:29N 34°41' E 135°13'0 0.0
2016-Feb-05 03:29N 34°41' E 135°13'9 9.1
2016-Feb-05 02:33N 34°32' E 135°13'2019.0
2016-Feb-05 01:31N 34°16' E 134°59'17115.2
2016-Feb-04 14:17N 34°27' E 138°25'5517.9
2016-Feb-04 11:11N 34°54' E 139°24'1419.9
2016-Feb-04 10:30N 35°03' E 139°37'1515.6
2016-Feb-04 09:34N 35°15' E 139°46'7 6.3
2016-Feb-04 08:30N 35°19' E 139°39'0 0.0
2016-Feb-04 07:24N 35°19' E 139°39'0 0.0
2016-Feb-04 06:33N 35°19' E 139°39'0 0.0
2016-Feb-04 05:30N 35°19' E 139°39'0 0.0
2016-Feb-04 04:33N 35°19' E 139°39'0 0.1
2016-Feb-04 03:33N 35°19' E 139°39'10 9.8
2016-Feb-04 02:33N 35°11' E 139°47'  
2016-Feb-01 11:10N 35°02' E 139°38'1117.5
2016-Feb-01 10:33N 35°11' E 139°45'10 9.8
2016-Feb-01 09:33N 35°19' E 139°39'0 0.0
2016-Feb-01 08:31N 35°19' E 139°39'0 0.0
2016-Feb-01 07:04N 35°19' E 139°39'0 0.0
2016-Feb-01 06:22N 35°19' E 139°39'0 0.0
2016-Feb-01 05:28N 35°19' E 139°39'0 0.0
2016-Feb-01 04:31N 35°19' E 139°39'0 0.0
2016-Feb-01 03:28N 35°19' E 139°39'0 0.0
2016-Feb-01 02:28N 35°19' E 139°39'0 0.0
2016-Feb-01 01:31N 35°19' E 139°39'0 0.0
2016-Feb-01 00:31N 35°19' E 139°39'0 0.0
2016-Jan-31 23:31N 35°19' E 139°39'2 1.9
2016-Jan-31 22:33N 35°19' E 139°41'0 0.0
2016-Jan-31 21:33N 35°19' E 139°41'0 0.0
2016-Jan-31 20:30N 35°19' E 139°41'0 0.0
2016-Jan-31 19:33N 35°19' E 139°41'0 0.0
2016-Jan-31 18:33N 35°19' E 139°41'0 0.0
2016-Jan-31 17:33N 35°19' E 139°41'0 0.0
2016-Jan-31 16:33N 35°19' E 139°41'0 0.0
2016-Jan-31 15:33N 35°19' E 139°41'0 0.1
2016-Jan-31 14:33N 35°20' E 139°41'0 0.0
2016-Jan-31 13:33N 35°20' E 139°41'1 0.6
2016-Jan-31 12:33N 35°19' E 139°42'1212.3
2016-Jan-31 11:34N 35°07' E 139°45'237 4.6
2016-Jan-29 08:14N 34°37' E 134°58'1116.7
2016-Jan-29 07:33N 34°36' E 135°12'5 4.5
2016-Jan-29 06:26N 34°41' E 135°13'0 0.0
2016-Jan-29 05:32N 34°41' E 135°13'  
Track history (hours):
 
Tides and Currents Weather Stations Pressure Air Temp Water Temp Dewpoint Dewpoint Depression Visibility Wind Speed Wind Dir Waves Ship Positions

Nichiryu Maru

Last reported at 2016-Feb-08 05:29 UTC. Time now 2016-Feb-08 06:10 UTC.
Position N 35°19' E 139°39'.

Length 158 m; draft 6.5 m.

Type: Cargo ship. MMSI: 43100939.

Date/timePositionNaut miles runAvg speedWind from/ knotsBaromVisibWave heightAir tempDewpointWater temp
2016-Feb-08 05:29N 35°19' E 139°39'0 0.0
2016-Feb-08 04:32N 35°19' E 139°39'0 0.0
2016-Feb-08 03:29N 35°19' E 139°39'0 0.0
2016-Feb-08 02:32N 35°19' E 139°39'0 0.0
2016-Feb-08 01:23N 35°19' E 139°39'0 0.0
2016-Feb-08 00:32N 35°19' E 139°39'0 0.0
2016-Feb-07 23:29N 35°19' E 139°39'5 5.5
2016-Feb-07 22:33N 35°17' E 139°45'1414.1
2016-Feb-07 21:33N 35°04' E 139°42'6615.9
2016-Feb-07 17:23N 34°29' E 138°32'  
2016-Feb-05 08:15N 34°33' E 134°47'1319.0
2016-Feb-05 07:33N 34°37' E 135°02'1010.4
2016-Feb-05 06:34N 34°41' E 135°14'0 0.2
2016-Feb-05 05:29N 34°41' E 135°13'0 0.0
2016-Feb-05 04:29N 34°41' E 135°13'0 0.0
2016-Feb-05 03:29N 34°41' E 135°13'9 9.1
2016-Feb-05 02:33N 34°32' E 135°13'2019.0
2016-Feb-05 01:31N 34°16' E 134°59'17115.2
2016-Feb-04 14:17N 34°27' E 138°25'5517.9
2016-Feb-04 11:11N 34°54' E 139°24'1419.9
2016-Feb-04 10:30N 35°03' E 139°37'1515.6
2016-Feb-04 09:34N 35°15' E 139°46'7 6.3
2016-Feb-04 08:30N 35°19' E 139°39'0 0.0
2016-Feb-04 07:24N 35°19' E 139°39'0 0.0
2016-Feb-04 06:33N 35°19' E 139°39'0 0.0
2016-Feb-04 05:30N 35°19' E 139°39'0 0.0
2016-Feb-04 04:33N 35°19' E 139°39'0 0.1
2016-Feb-04 03:33N 35°19' E 139°39'10 9.8
2016-Feb-04 02:33N 35°11' E 139°47'  
2016-Feb-01 11:10N 35°02' E 139°38'1117.5
2016-Feb-01 10:33N 35°11' E 139°45'10 9.8
2016-Feb-01 09:33N 35°19' E 139°39'0 0.0
2016-Feb-01 08:31N 35°19' E 139°39'0 0.0
2016-Feb-01 07:04N 35°19' E 139°39'0 0.0
2016-Feb-01 06:22N 35°19' E 139°39'0 0.0
2016-Feb-01 05:28N 35°19' E 139°39'0 0.0
2016-Feb-01 04:31N 35°19' E 139°39'0 0.0
2016-Feb-01 03:28N 35°19' E 139°39'0 0.0
2016-Feb-01 02:28N 35°19' E 139°39'0 0.0
2016-Feb-01 01:31N 35°19' E 139°39'0 0.0
2016-Feb-01 00:31N 35°19' E 139°39'0 0.0
2016-Jan-31 23:31N 35°19' E 139°39'2 1.9
2016-Jan-31 22:33N 35°19' E 139°41'0 0.0
2016-Jan-31 21:33N 35°19' E 139°41'0 0.0
2016-Jan-31 20:30N 35°19' E 139°41'0 0.0
2016-Jan-31 19:33N 35°19' E 139°41'0 0.0
2016-Jan-31 18:33N 35°19' E 139°41'0 0.0
2016-Jan-31 17:33N 35°19' E 139°41'0 0.0
2016-Jan-31 16:33N 35°19' E 139°41'0 0.0
2016-Jan-31 15:33N 35°19' E 139°41'0 0.1
2016-Jan-31 14:33N 35°20' E 139°41'0 0.0
2016-Jan-31 13:33N 35°20' E 139°41'1 0.6
2016-Jan-31 12:33N 35°19' E 139°42'1212.3
2016-Jan-31 11:34N 35°07' E 139°45'237 4.6
2016-Jan-29 08:14N 34°37' E 134°58'1116.7
2016-Jan-29 07:33N 34°36' E 135°12'5 4.5
2016-Jan-29 06:26N 34°41' E 135°13'0 0.0
2016-Jan-29 05:32N 34°41' E 135°13'  

Dump ship's entire track history